EDW894T LSZH-LEIB
Flight info
| Callsign | EDW894T |
|---|---|
| Flight time | 1h 45m |
| Altitude | 35000 |
| Route | VEBIT T50 ROTOS Z669 ULMES DCT VADAR DCT GEVEA DCT INCUS DCT BALSI DCT RETNO DCT TUPOX DCT MTG DCT DIVKO DCT VATIR DCT PIVUS DCT SULID DCT DIMIB DCT POS |
| Aircraft | A320/M-SDE3FGHIRWY/LB1 |
Departure
| Time | 2026-05-04 16:31 |
|---|---|
| Airport | Zürich Airport (LSZH) |
Arrival
| Time | 2026-05-04 18:17 |
|---|---|
| Airport | Ibiza Airport (LEIB) |
| Time | Latitude | Longitude | Altitude | Speed | Heading |
|---|---|---|---|---|---|
| 2026-05-04 16:04 | 47.44810 | 8.55888 | 1397 ft | 0 kts | 245° |
| 2026-05-04 16:25 | 47.44794 | 8.55832 | 1404 ft | 9 kts | 257° |
| 2026-05-04 16:26 | 47.45027 | 8.55722 | 1405 ft | 14 kts | 346° |
| 2026-05-04 16:26 | 47.45357 | 8.55522 | 1403 ft | 22 kts | 334° |
| 2026-05-04 16:27 | 47.45626 | 8.55337 | 1399 ft | 17 kts | 356° |
| 2026-05-04 16:28 | 47.45650 | 8.55692 | 1397 ft | 10 kts | 96° |
| 2026-05-04 16:28 | 47.45630 | 8.55994 | 1403 ft | 19 kts | 96° |
| 2026-05-04 16:29 | 47.45584 | 8.57007 | 1405 ft | 7 kts | 44° |
| 2026-05-04 16:30 | 47.45667 | 8.56938 | 1410 ft | 0 kts | 275° |
| 2026-05-04 16:31 | 47.45701 | 8.56412 | 1404 ft | 84 kts | 275° |
| 2026-05-04 16:31 | 47.46051 | 8.51909 | 2164 ft | 173 kts | 278° |
| 2026-05-04 16:32 | 47.45749 | 8.46605 | 4014 ft | 194 kts | 228° |
| 2026-05-04 16:33 | 47.43459 | 8.43902 | 4958 ft | 223 kts | 232° |
| 2026-05-04 16:33 | 47.41534 | 8.40003 | 6101 ft | 252 kts | 233° |
| 2026-05-04 16:34 | 47.39412 | 8.35555 | 7309 ft | 272 kts | 233° |
| 2026-05-04 16:34 | 47.38448 | 8.33169 | 8113 ft | 276 kts | 240° |
| 2026-05-04 16:35 | 47.35707 | 8.25445 | 10418 ft | 293 kts | 239° |
| 2026-05-04 16:35 | 47.32608 | 8.16789 | 11588 ft | 340 kts | 240° |
| 2026-05-04 16:36 | 47.31502 | 8.13688 | 12234 ft | 343 kts | 240° |
| 2026-05-04 16:36 | 47.29281 | 8.07429 | 13662 ft | 346 kts | 241° |
| 2026-05-04 16:37 | 47.27041 | 8.01112 | 14867 ft | 350 kts | 242° |
| 2026-05-04 16:37 | 47.26080 | 7.97812 | 15472 ft | 352 kts | 246° |
| 2026-05-04 16:37 | 47.24218 | 7.91100 | 16659 ft | 356 kts | 246° |
| 2026-05-04 16:38 | 47.23594 | 7.88868 | 17043 ft | 357 kts | 246° |
| 2026-05-04 16:39 | 47.21940 | 7.83184 | 18039 ft | 360 kts | 246° |
| 2026-05-04 16:39 | 47.20011 | 7.76293 | 19052 ft | 366 kts | 246° |
| 2026-05-04 16:40 | 47.17523 | 7.69762 | 20034 ft | 369 kts | 231° |
| 2026-05-04 16:40 | 47.14400 | 7.63978 | 20971 ft | 374 kts | 231° |
| 2026-05-04 16:41 | 47.11151 | 7.57972 | 21929 ft | 380 kts | 231° |
| 2026-05-04 16:41 | 47.06160 | 7.48783 | 23328 ft | 387 kts | 230° |
| 2026-05-04 16:42 | 47.01075 | 7.39443 | 24393 ft | 394 kts | 230° |
| 2026-05-04 16:43 | 46.97622 | 7.33132 | 25048 ft | 398 kts | 230° |
| 2026-05-04 16:43 | 46.94170 | 7.26837 | 25684 ft | 401 kts | 230° |
| 2026-05-04 16:43 | 46.92412 | 7.23627 | 25986 ft | 403 kts | 230° |
| 2026-05-04 16:44 | 46.85320 | 7.10731 | 27158 ft | 411 kts | 230° |
| 2026-05-04 16:45 | 46.81720 | 7.04192 | 27737 ft | 414 kts | 230° |
| 2026-05-04 16:46 | 46.76277 | 6.94353 | 28508 ft | 419 kts | 230° |
| 2026-05-04 16:46 | 46.72573 | 6.87680 | 28998 ft | 423 kts | 230° |
| 2026-05-04 16:47 | 46.68886 | 6.81041 | 29453 ft | 426 kts | 230° |
| 2026-05-04 16:47 | 46.65131 | 6.74347 | 29899 ft | 428 kts | 229° |
| 2026-05-04 16:48 | 46.59034 | 6.64760 | 30481 ft | 430 kts | 226° |
| 2026-05-04 16:48 | 46.56956 | 6.61643 | 30756 ft | 428 kts | 226° |
| 2026-05-04 16:49 | 46.52850 | 6.55409 | 31326 ft | 425 kts | 227° |
| 2026-05-04 16:49 | 46.48845 | 6.49216 | 31833 ft | 422 kts | 227° |
| 2026-05-04 16:50 | 46.44847 | 6.43025 | 32348 ft | 419 kts | 227° |
| 2026-05-04 16:50 | 46.40863 | 6.36886 | 32848 ft | 416 kts | 227° |
| 2026-05-04 16:51 | 46.36899 | 6.30807 | 33333 ft | 414 kts | 227° |
| 2026-05-04 16:51 | 46.34909 | 6.27759 | 33577 ft | 413 kts | 227° |
| 2026-05-04 16:51 | 46.30997 | 6.21781 | 34054 ft | 411 kts | 227° |
| 2026-05-04 16:52 | 46.26848 | 6.16052 | 34456 ft | 411 kts | 217° |
| 2026-05-04 16:52 | 46.24414 | 6.13976 | 34647 ft | 413 kts | 207° |
| 2026-05-04 16:53 | 46.19786 | 6.11960 | 34931 ft | 419 kts | 192° |
| 2026-05-04 16:53 | 46.10202 | 6.09860 | 35053 ft | 418 kts | 193° |
| 2026-05-04 16:54 | 46.08291 | 6.09435 | 35052 ft | 418 kts | 193° |
| 2026-05-04 16:55 | 45.91038 | 6.05603 | 35056 ft | 418 kts | 193° |
| 2026-05-04 16:56 | 45.76654 | 6.02420 | 35037 ft | 418 kts | 193° |
| 2026-05-04 16:57 | 45.68071 | 6.00543 | 35043 ft | 418 kts | 193° |
| 2026-05-04 16:58 | 45.56568 | 5.98006 | 35053 ft | 418 kts | 193° |
| 2026-05-04 17:00 | 45.39461 | 5.93639 | 35030 ft | 414 kts | 197° |
| 2026-05-04 17:01 | 45.25407 | 5.89082 | 35010 ft | 414 kts | 197° |
| 2026-05-04 17:02 | 45.14167 | 5.85626 | 35005 ft | 412 kts | 197° |
| 2026-05-04 17:03 | 45.05758 | 5.83018 | 34991 ft | 412 kts | 197° |
| 2026-05-04 17:03 | 44.97408 | 5.80447 | 34973 ft | 410 kts | 197° |
| 2026-05-04 17:04 | 44.86305 | 5.77030 | 34995 ft | 408 kts | 197° |
| 2026-05-04 17:05 | 44.75245 | 5.73651 | 35002 ft | 407 kts | 196° |
| 2026-05-04 17:06 | 44.66927 | 5.71115 | 35003 ft | 407 kts | 196° |
| 2026-05-04 17:07 | 44.59547 | 5.68871 | 35007 ft | 408 kts | 196° |
| 2026-05-04 17:07 | 44.53057 | 5.66894 | 35016 ft | 408 kts | 196° |
| 2026-05-04 17:08 | 44.44717 | 5.64375 | 35015 ft | 409 kts | 196° |
| 2026-05-04 17:09 | 44.39163 | 5.62694 | 35029 ft | 408 kts | 197° |
| 2026-05-04 17:09 | 44.33880 | 5.60094 | 35025 ft | 405 kts | 205° |
| 2026-05-04 17:10 | 44.20784 | 5.52915 | 35038 ft | 404 kts | 204° |
| 2026-05-04 17:11 | 44.15545 | 5.50064 | 35036 ft | 404 kts | 204° |
| 2026-05-04 17:12 | 44.07696 | 5.45791 | 35033 ft | 403 kts | 204° |
| 2026-05-04 17:13 | 43.94648 | 5.38718 | 35024 ft | 402 kts | 205° |
| 2026-05-04 17:14 | 43.84248 | 5.33099 | 35014 ft | 402 kts | 205° |
| 2026-05-04 17:15 | 43.76400 | 5.28878 | 35012 ft | 401 kts | 205° |
| 2026-05-04 17:16 | 43.66025 | 5.23298 | 35005 ft | 400 kts | 205° |
| 2026-05-04 17:17 | 43.55702 | 5.17777 | 35005 ft | 399 kts | 205° |
| 2026-05-04 17:18 | 43.45358 | 5.12260 | 35008 ft | 398 kts | 205° |
| 2026-05-04 17:19 | 43.35481 | 5.05724 | 35005 ft | 392 kts | 217° |
| 2026-05-04 17:20 | 43.26497 | 4.97237 | 34999 ft | 391 kts | 217° |
| 2026-05-04 17:20 | 43.19785 | 4.90934 | 34987 ft | 391 kts | 217° |
| 2026-05-04 17:21 | 43.10805 | 4.82540 | 34978 ft | 390 kts | 217° |
| 2026-05-04 17:22 | 43.06322 | 4.78357 | 34978 ft | 390 kts | 216° |
| 2026-05-04 17:23 | 42.96855 | 4.71035 | 34964 ft | 391 kts | 212° |
| 2026-05-04 17:24 | 42.89765 | 4.65674 | 34958 ft | 390 kts | 212° |
| 2026-05-04 17:25 | 42.80274 | 4.58514 | 34950 ft | 390 kts | 212° |
| 2026-05-04 17:26 | 42.70785 | 4.51377 | 34954 ft | 389 kts | 212° |
| 2026-05-04 17:27 | 42.58932 | 4.42496 | 34947 ft | 389 kts | 212° |
| 2026-05-04 17:28 | 42.49450 | 4.35419 | 34936 ft | 389 kts | 211° |
| 2026-05-04 17:29 | 42.35257 | 4.24877 | 34935 ft | 388 kts | 211° |
| 2026-05-04 17:31 | 42.23400 | 4.16120 | 34930 ft | 388 kts | 211° |
| 2026-05-04 17:32 | 42.11531 | 4.07370 | 34929 ft | 389 kts | 211° |
| 2026-05-04 17:33 | 42.02014 | 4.00400 | 34931 ft | 389 kts | 211° |
| 2026-05-04 17:34 | 41.92532 | 3.93465 | 34929 ft | 389 kts | 211° |
| 2026-05-04 17:35 | 41.80423 | 3.85305 | 34930 ft | 389 kts | 210° |
| 2026-05-04 17:36 | 41.75568 | 3.82075 | 34931 ft | 389 kts | 210° |
| 2026-05-04 17:36 | 41.71545 | 3.79370 | 34935 ft | 389 kts | 210° |
| 2026-05-04 17:37 | 41.66705 | 3.76115 | 34935 ft | 389 kts | 210° |
| 2026-05-04 17:37 | 41.61858 | 3.72882 | 34928 ft | 389 kts | 210° |
| 2026-05-04 17:38 | 41.57015 | 3.69664 | 34932 ft | 389 kts | 210° |
| 2026-05-04 17:38 | 41.52173 | 3.66442 | 34930 ft | 389 kts | 210° |
| 2026-05-04 17:39 | 41.44906 | 3.61606 | 34928 ft | 389 kts | 210° |
| 2026-05-04 17:39 | 41.40057 | 3.58392 | 34930 ft | 389 kts | 210° |
| 2026-05-04 17:40 | 41.35204 | 3.55187 | 34927 ft | 389 kts | 210° |
| 2026-05-04 17:40 | 41.30344 | 3.51991 | 34928 ft | 390 kts | 210° |
| 2026-05-04 17:41 | 41.25518 | 3.48809 | 34933 ft | 390 kts | 210° |
| 2026-05-04 17:41 | 41.20661 | 3.45615 | 34934 ft | 389 kts | 210° |
| 2026-05-04 17:42 | 41.15477 | 3.43350 | 34925 ft | 398 kts | 197° |
| 2026-05-04 17:42 | 41.10052 | 3.41927 | 34924 ft | 398 kts | 197° |
| 2026-05-04 17:43 | 41.04605 | 3.40492 | 34918 ft | 398 kts | 197° |
| 2026-05-04 17:43 | 40.99172 | 3.39057 | 34922 ft | 398 kts | 197° |
| 2026-05-04 17:44 | 40.93722 | 3.37620 | 34919 ft | 399 kts | 197° |
| 2026-05-04 17:44 | 40.88291 | 3.36190 | 34920 ft | 400 kts | 197° |
| 2026-05-04 17:45 | 40.82830 | 3.34762 | 34923 ft | 400 kts | 197° |
| 2026-05-04 17:45 | 40.77374 | 3.33333 | 34925 ft | 400 kts | 197° |
| 2026-05-04 17:46 | 40.71911 | 3.31910 | 34931 ft | 400 kts | 197° |
| 2026-05-04 17:46 | 40.66442 | 3.30481 | 34927 ft | 400 kts | 197° |
| 2026-05-04 17:47 | 40.60983 | 3.29054 | 34929 ft | 400 kts | 197° |
| 2026-05-04 17:47 | 40.55512 | 3.27628 | 34925 ft | 400 kts | 197° |
| 2026-05-04 17:48 | 40.50090 | 3.26225 | 34928 ft | 399 kts | 197° |
| 2026-05-04 17:48 | 40.44640 | 3.24809 | 34930 ft | 399 kts | 197° |
| 2026-05-04 17:49 | 40.39181 | 3.23399 | 34928 ft | 399 kts | 197° |
| 2026-05-04 17:49 | 40.33726 | 3.21992 | 34924 ft | 399 kts | 197° |
| 2026-05-04 17:50 | 40.28291 | 3.20587 | 34926 ft | 398 kts | 197° |
| 2026-05-04 17:50 | 40.22851 | 3.19187 | 34939 ft | 398 kts | 197° |
| 2026-05-04 17:51 | 40.17410 | 3.17787 | 34935 ft | 397 kts | 198° |
| 2026-05-04 17:51 | 40.11989 | 3.16388 | 34935 ft | 397 kts | 198° |
| 2026-05-04 17:52 | 40.06555 | 3.14993 | 34935 ft | 397 kts | 198° |
| 2026-05-04 17:52 | 40.01134 | 3.13610 | 34939 ft | 397 kts | 198° |
| 2026-05-04 17:53 | 39.95751 | 3.12234 | 34944 ft | 397 kts | 198° |
| 2026-05-04 17:53 | 39.90638 | 3.09939 | 34936 ft | 384 kts | 214° |
| 2026-05-04 17:54 | 39.85997 | 3.06546 | 34933 ft | 383 kts | 214° |
| 2026-05-04 17:54 | 39.81329 | 3.03148 | 34942 ft | 384 kts | 214° |
| 2026-05-04 17:55 | 39.76664 | 2.99755 | 34956 ft | 383 kts | 214° |
| 2026-05-04 17:55 | 39.72008 | 2.96381 | 34966 ft | 383 kts | 214° |
| 2026-05-04 17:56 | 39.67356 | 2.93014 | 34969 ft | 382 kts | 214° |
| 2026-05-04 17:56 | 39.62715 | 2.89652 | 34979 ft | 381 kts | 214° |
| 2026-05-04 17:57 | 39.58103 | 2.86321 | 34972 ft | 382 kts | 214° |
| 2026-05-04 17:57 | 39.53429 | 2.82959 | 34976 ft | 382 kts | 214° |
| 2026-05-04 17:58 | 39.51099 | 2.81283 | 34849 ft | 384 kts | 214° |
| 2026-05-04 17:58 | 39.48799 | 2.79629 | 34463 ft | 383 kts | 214° |
| 2026-05-04 17:58 | 39.46464 | 2.77950 | 33677 ft | 383 kts | 214° |
| 2026-05-04 17:58 | 39.44218 | 2.76120 | 32937 ft | 377 kts | 221° |
| 2026-05-04 17:59 | 39.42309 | 2.73869 | 32407 ft | 368 kts | 230° |
| 2026-05-04 17:59 | 39.40693 | 2.71342 | 31849 ft | 363 kts | 232° |
| 2026-05-04 17:59 | 39.37546 | 2.66328 | 30759 ft | 355 kts | 232° |
| 2026-05-04 18:00 | 39.35994 | 2.63863 | 30224 ft | 352 kts | 232° |
| 2026-05-04 18:00 | 39.34448 | 2.61412 | 29647 ft | 349 kts | 232° |
| 2026-05-04 18:00 | 39.32923 | 2.58996 | 29118 ft | 344 kts | 232° |
| 2026-05-04 18:00 | 39.31419 | 2.56616 | 28608 ft | 340 kts | 232° |
| 2026-05-04 18:01 | 39.29932 | 2.54265 | 28112 ft | 335 kts | 232° |
| 2026-05-04 18:01 | 39.28463 | 2.51942 | 27619 ft | 331 kts | 232° |
| 2026-05-04 18:01 | 39.27011 | 2.49652 | 27137 ft | 328 kts | 232° |
| 2026-05-04 18:02 | 39.24155 | 2.45150 | 26208 ft | 321 kts | 232° |
| 2026-05-04 18:02 | 39.22749 | 2.42932 | 25772 ft | 318 kts | 232° |
| 2026-05-04 18:02 | 39.21359 | 2.40742 | 25344 ft | 314 kts | 232° |
| 2026-05-04 18:02 | 39.19983 | 2.38578 | 24920 ft | 310 kts | 232° |
| 2026-05-04 18:03 | 39.18618 | 2.36436 | 24495 ft | 307 kts | 232° |
| 2026-05-04 18:03 | 39.17315 | 2.34272 | 23931 ft | 307 kts | 239° |
| 2026-05-04 18:03 | 39.16502 | 2.31717 | 23118 ft | 316 kts | 250° |
| 2026-05-04 18:03 | 39.15838 | 2.28966 | 22207 ft | 324 kts | 251° |
| 2026-05-04 18:04 | 39.15179 | 2.26194 | 21320 ft | 332 kts | 251° |
| 2026-05-04 18:04 | 39.14501 | 2.23331 | 20426 ft | 332 kts | 251° |
| 2026-05-04 18:04 | 39.13169 | 2.17715 | 18738 ft | 323 kts | 252° |
| 2026-05-04 18:05 | 39.12512 | 2.14966 | 17901 ft | 319 kts | 252° |
| 2026-05-04 18:05 | 39.11863 | 2.12255 | 17013 ft | 316 kts | 252° |
| 2026-05-04 18:05 | 39.11216 | 2.09561 | 16161 ft | 312 kts | 252° |
| 2026-05-04 18:05 | 39.10575 | 2.06895 | 15334 ft | 309 kts | 252° |
| 2026-05-04 18:06 | 39.09306 | 2.01649 | 13762 ft | 304 kts | 252° |
| 2026-05-04 18:06 | 39.08685 | 1.99084 | 13199 ft | 293 kts | 252° |
| 2026-05-04 18:06 | 39.08099 | 1.96657 | 12849 ft | 277 kts | 252° |
| 2026-05-04 18:07 | 39.07531 | 1.94306 | 12219 ft | 272 kts | 252° |
| 2026-05-04 18:07 | 39.06971 | 1.91989 | 11543 ft | 270 kts | 251° |
| 2026-05-04 18:07 | 39.06413 | 1.89687 | 10865 ft | 268 kts | 251° |
| 2026-05-04 18:07 | 39.05855 | 1.87402 | 10203 ft | 266 kts | 251° |
| 2026-05-04 18:08 | 39.05302 | 1.85137 | 9512 ft | 265 kts | 252° |
| 2026-05-04 18:08 | 39.04757 | 1.82903 | 8793 ft | 264 kts | 252° |
| 2026-05-04 18:08 | 39.04208 | 1.80652 | 8082 ft | 262 kts | 252° |
| 2026-05-04 18:08 | 39.03664 | 1.78423 | 7329 ft | 262 kts | 252° |
| 2026-05-04 18:09 | 39.02452 | 1.73925 | 5633 ft | 269 kts | 242° |
| 2026-05-04 18:09 | 39.00867 | 1.70188 | 4450 ft | 259 kts | 242° |
| 2026-05-04 18:10 | 39.00031 | 1.68177 | 3862 ft | 251 kts | 243° |
| 2026-05-04 18:10 | 38.99220 | 1.66219 | 3251 ft | 245 kts | 242° |
| 2026-05-04 18:10 | 38.98450 | 1.64361 | 3038 ft | 224 kts | 242° |
| 2026-05-04 18:10 | 38.97756 | 1.62688 | 2995 ft | 198 kts | 242° |
| 2026-05-04 18:11 | 38.97147 | 1.61227 | 3037 ft | 174 kts | 242° |
| 2026-05-04 18:11 | 38.96607 | 1.59930 | 2957 ft | 161 kts | 242° |
| 2026-05-04 18:11 | 38.96094 | 1.58691 | 2826 ft | 152 kts | 242° |
| 2026-05-04 18:11 | 38.95615 | 1.57525 | 2699 ft | 143 kts | 241° |
| 2026-05-04 18:12 | 38.95156 | 1.56408 | 2579 ft | 141 kts | 242° |
| 2026-05-04 18:12 | 38.94697 | 1.55291 | 2445 ft | 141 kts | 241° |
| 2026-05-04 18:12 | 38.94242 | 1.54183 | 2357 ft | 140 kts | 242° |
| 2026-05-04 18:12 | 38.93788 | 1.53078 | 2229 ft | 140 kts | 242° |
| 2026-05-04 18:13 | 38.93336 | 1.51978 | 2143 ft | 139 kts | 241° |
| 2026-05-04 18:13 | 38.92882 | 1.50875 | 2054 ft | 141 kts | 240° |
| 2026-05-04 18:13 | 38.91977 | 1.48678 | 1754 ft | 138 kts | 240° |
| 2026-05-04 18:14 | 38.91528 | 1.47589 | 1575 ft | 138 kts | 240° |
| 2026-05-04 18:14 | 38.91079 | 1.46501 | 1391 ft | 137 kts | 239° |
| 2026-05-04 18:14 | 38.90636 | 1.45426 | 1210 ft | 137 kts | 238° |
| 2026-05-04 18:15 | 38.89746 | 1.43270 | 842 ft | 138 kts | 240° |
| 2026-05-04 18:15 | 38.88849 | 1.41099 | 476 ft | 139 kts | 240° |
| 2026-05-04 18:15 | 38.88395 | 1.40014 | 280 ft | 136 kts | 239° |
| 2026-05-04 18:16 | 38.87951 | 1.38928 | 81 ft | 138 kts | 241° |
| 2026-05-04 18:16 | 38.87514 | 1.37861 | 7 ft | 125 kts | 242° |
| 2026-05-04 18:16 | 38.87219 | 1.37154 | 9 ft | 59 kts | 242° |
| 2026-05-04 18:17 | 38.87102 | 1.36647 | 7 ft | 9 kts | 272° |
| 2026-05-04 18:17 | 38.87115 | 1.36568 | 9 ft | 9 kts | 305° |
| 2026-05-04 18:17 | 38.87179 | 1.36600 | 8 ft | 4 kts | 61° |
| 2026-05-04 18:18 | 38.87191 | 1.36628 | 10 ft | 3 kts | 61° |
| 2026-05-04 18:18 | 38.87200 | 1.36649 | 8 ft | 6 kts | 61° |
| 2026-05-04 18:18 | 38.87232 | 1.36723 | 10 ft | 10 kts | 61° |
| 2026-05-04 18:18 | 38.87262 | 1.36793 | 10 ft | 9 kts | 61° |
| 2026-05-04 18:19 | 38.87360 | 1.36824 | 10 ft | 6 kts | 335° |
| 2026-05-04 18:19 | 38.87397 | 1.36801 | 9 ft | 6 kts | 335° |
| 2026-05-04 18:19 | 38.87428 | 1.36798 | 9 ft | 4 kts | 17° |
| 2026-05-04 18:20 | 38.87461 | 1.36857 | 9 ft | 11 kts | 62° |
| 2026-05-04 18:20 | 38.87494 | 1.36935 | 9 ft | 8 kts | 61° |
| 2026-05-04 18:20 | 38.87524 | 1.36945 | 9 ft | 3 kts | 348° |
| 2026-05-04 18:20 | 38.87537 | 1.36935 | 10 ft | 2 kts | 332° |
| 2026-05-04 18:21 | 38.87545 | 1.36930 | 9 ft | 1 kts | 333° |
| 2026-05-04 18:21 | 38.87560 | 1.36920 | 9 ft | 0 kts | 333° |
| 2026-05-04 18:21 | 38.87564 | 1.36918 | 9 ft | 0 kts | 333° |